Time;durP1;ratioP1;P1;durP2;ratioP2;P2;SDS_P1;SDS_P2;PMS_P1;PMS_P2;Temp;Humidity;BMP_temperature;BMP_pressure;BME280_temperature;BME280_humidity;BME280_pressure;Samples;Min_cycle;Max_cycle;Signal;HPM_P1;HPM_P2
2022/10/20 00:01:15;;;;;;;20.77;11.87;;;;;;;8.95;100.00;96681.03;5044960;28;20052;-77
2022/10/20 00:03:42;;;;;;;15.50;10.87;;;;;;;9.00;100.00;96676.22;5044332;28;20036;-79
2022/10/20 00:06:17;;;;;;;18.27;12.10;;;;;;;8.96;100.00;96686.16;5045563;28;20039;-79
2022/10/20 00:08:43;;;;;;;18.27;11.30;;;;;;;9.06;100.00;96680.09;5044071;28;20108;-77
2022/10/20 00:11:11;;;;;;;15.37;10.17;;;;;;;9.09;100.00;96677.19;5045825;28;20048;-78
2022/10/20 00:13:37;;;;;;;17.17;10.90;;;;;;;9.18;100.00;96677.16;5046887;28;20020;-77
2022/10/20 00:16:04;;;;;;;16.50;10.83;;;;;;;9.16;100.00;96667.78;5045533;28;20037;-77
2022/10/20 00:18:30;;;;;;;15.23;10.17;;;;;;;9.27;100.00;96651.06;5044773;28;20488;-77
2022/10/20 00:20:56;;;;;;;17.27;10.50;;;;;;;9.19;100.00;96659.66;5028938;28;20390;-77
2022/10/20 00:23:22;;;;;;;17.30;11.27;;;;;;;9.17;100.00;96662.41;5045367;28;20056;-77
2022/10/20 00:25:48;;;;;;;14.87;9.47;;;;;;;9.12;100.00;96664.63;5046038;28;20370;-77
2022/10/20 00:28:13;;;;;;;15.80;10.77;;;;;;;9.12;100.00;96666.41;5044777;28;20032;-77
2022/10/20 00:30:39;;;;;;;15.43;10.57;;;;;;;9.09;100.00;96659.66;5048752;28;20072;-77
2022/10/20 00:33:05;;;;;;;14.90;10.60;;;;;;;9.08;100.00;96654.53;5053284;28;20508;-77
2022/10/20 00:35:32;;;;;;;17.07;11.00;;;;;;;9.00;100.00;96655.22;5045220;28;20041;-77
2022/10/20 00:37:58;;;;;;;17.37;10.57;;;;;;;9.11;100.00;96647.19;5054145;28;20394;-77
2022/10/20 00:40:25;;;;;;;14.23;10.03;;;;;;;9.03;100.00;96652.34;5046387;28;20036;-77
2022/10/20 00:42:50;;;;;;;15.53;11.27;;;;;;;9.03;100.00;96654.13;5053532;28;20029;-77
2022/10/20 00:45:20;;;;;;;18.07;11.97;;;;;;;9.06;100.00;96638.94;5053154;28;20037;-77
2022/10/20 00:47:52;;;;;;;15.07;10.47;;;;;;;9.10;100.00;96644.72;5046018;28;20033;-77
2022/10/20 00:50:21;;;;;;;16.50;11.13;;;;;;;9.08;100.00;96630.91;5041099;28;20033;-78
2022/10/20 00:52:48;;;;;;;17.07;10.57;;;;;;;9.10;100.00;96631.63;5044124;28;20025;-78
2022/10/20 00:55:19;;;;;;;18.63;11.63;;;;;;;9.06;100.00;96628.44;5045560;28;20948;-78
2022/10/20 00:57:49;;;;;;;15.83;10.87;;;;;;;9.08;100.00;96621.25;5044942;28;20043;-77
2022/10/20 01:00:15;;;;;;;15.67;10.53;;;;;;;9.09;100.00;96628.16;5043558;28;20113;-78
2022/10/20 01:02:42;;;;;;;15.80;11.10;;;;;;;9.12;100.00;96619.16;5051686;28;20394;-77
2022/10/20 01:05:08;;;;;;;16.80;10.63;;;;;;;9.04;100.00;96613.81;5049017;28;20033;-77
2022/10/20 01:07:34;;;;;;;15.13;10.73;;;;;;;8.96;100.00;96611.91;5048273;28;20047;-77
2022/10/20 01:10:01;;;;;;;19.87;11.23;;;;;;;8.90;100.00;96617.69;5049383;28;20017;-77
2022/10/20 01:12:26;;;;;;;19.10;11.60;;;;;;;8.88;100.00;96619.63;5048395;28;20032;-77
2022/10/20 01:14:56;;;;;;;16.10;10.47;;;;;;;8.84;100.00;96613.00;5038398;28;20384;-77
2022/10/20 01:17:33;;;;;;;15.17;10.57;;;;;;;8.90;100.00;96612.44;5047188;28;20056;-77
2022/10/20 01:20:35;;;;;;;17.27;10.67;;;;;;;8.92;100.00;96592.13;5039972;28;20062;-77
2022/10/20 01:23:14;;;;;;;15.17;9.67;;;;;;;8.91;100.00;96595.72;5048649;28;20725;-77
2022/10/20 01:26:07;;;;;;;17.13;9.53;;;;;;;8.97;100.00;96595.19;5048338;28;20617;-77
2022/10/20 01:28:49;;;;;;;16.52;10.77;;;;;;;8.88;100.00;96601.25;5047646;28;20040;-77
2022/10/20 01:31:36;;;;;;;15.23;10.30;;;;;;;8.80;100.00;96585.41;5052542;28;20036;-77
2022/10/20 01:34:30;;;;;;;15.57;9.57;;;;;;;8.94;100.00;96582.34;5054985;28;20060;-77
2022/10/20 01:37:04;;;;;;;15.95;10.27;;;;;;;8.98;100.00;96584.53;5047360;28;20094;-77
2022/10/20 01:39:39;;;;;;;15.40;10.53;;;;;;;8.96;100.00;96569.91;5048447;28;20032;-77
2022/10/20 01:42:14;;;;;;;19.60;14.37;;;;;;;9.42;100.00;96563.88;5052778;28;20021;-77
2022/10/20 01:44:41;;;;;;;25.07;15.50;;;;;;;9.64;100.00;96559.19;5035541;28;20242;-77
2022/10/20 01:47:09;;;;;;;23.40;16.43;;;;;;;9.66;100.00;96552.84;5055631;28;20088;-76
2022/10/20 01:49:35;;;;;;;26.40;17.93;;;;;;;9.77;100.00;96554.44;5050216;28;20047;-77
2022/10/20 01:52:01;;;;;;;24.77;16.40;;;;;;;9.85;100.00;96543.19;5046744;28;20025;-77
2022/10/20 01:54:28;;;;;;;26.93;17.03;;;;;;;9.85;100.00;96548.44;5059730;28;20140;-77
2022/10/20 01:57:19;;;;;;;28.77;19.70;;;;;;;9.84;100.00;96542.38;5047663;28;20102;-77
2022/10/20 01:59:47;;;;;;;28.13;19.80;;;;;;;9.80;100.00;96548.06;5038563;28;20132;-77
2022/10/20 02:03:04;;;;;;;31.30;20.43;;;;;;;9.81;100.00;96545.28;5062567;28;20393;-77
2022/10/20 02:05:36;;;;;;;31.03;19.17;;;;;;;9.75;100.00;96531.91;5048452;28;20053;-77
2022/10/20 02:08:17;;;;;;;40.97;22.53;;;;;;;9.66;100.00;96523.94;5049243;28;20525;-78
2022/10/20 02:10:48;;;;;;;35.93;22.37;;;;;;;9.61;100.00;96518.28;5049893;28;20120;-77
2022/10/20 02:13:16;;;;;;;37.47;23.93;;;;;;;9.59;100.00;96525.50;5029767;28;20092;-77
2022/10/20 02:15:47;;;;;;;39.50;23.90;;;;;;;9.51;100.00;96545.56;5046744;28;20769;-77
2022/10/20 02:18:18;;;;;;;35.13;23.03;;;;;;;9.54;100.00;96532.16;5053547;28;20592;-77
2022/10/20 02:20:48;;;;;;;39.23;23.60;;;;;;;9.50;100.00;96534.25;5052406;28;20128;-78
2022/10/20 02:23:13;;;;;;;39.40;23.17;;;;;;;9.46;100.00;96527.66;5049716;28;20497;-77
2022/10/20 02:25:40;;;;;;;39.10;22.70;;;;;;;9.47;100.00;96524.03;5043560;28;20033;-77
2022/10/20 02:28:11;;;;;;;38.27;23.57;;;;;;;9.40;100.00;96520.34;5050064;28;20067;-78
2022/10/20 02:30:39;;;;;;;42.27;23.57;;;;;;;9.40;100.00;96529.03;5059125;28;20070;-77
2022/10/20 02:33:06;;;;;;;38.23;23.40;;;;;;;9.37;100.00;96515.38;5061304;28;20025;-78
2022/10/20 02:35:32;;;;;;;39.40;23.00;;;;;;;9.33;100.00;96521.91;5048388;28;20117;-77
2022/10/20 02:37:58;;;;;;;41.43;24.37;;;;;;;9.32;100.00;96522.84;5050128;28;20044;-78
2022/10/20 02:40:24;;;;;;;35.90;23.93;;;;;;;9.31;100.00;96526.44;5049484;28;20571;-77
2022/10/20 02:42:50;;;;;;;35.27;21.83;;;;;;;9.32;100.00;96528.94;5065772;28;20037;-77
2022/10/20 02:45:16;;;;;;;37.53;23.20;;;;;;;9.25;100.00;96534.91;5045732;28;20568;-77
2022/10/20 02:47:42;;;;;;;44.50;24.47;;;;;;;9.24;100.00;96530.63;5056408;28;20032;-77
2022/10/20 02:50:08;;;;;;;34.83;22.37;;;;;;;9.26;100.00;96529.53;5031872;28;20032;-77
2022/10/20 02:52:35;;;;;;;40.13;23.13;;;;;;;9.21;100.00;96534.34;5040614;28;20061;-77
2022/10/20 02:55:02;;;;;;;38.33;22.00;;;;;;;9.25;100.00;96532.28;5035899;28;20064;-77
2022/10/20 02:57:27;;;;;;;32.77;21.80;;;;;;;9.24;100.00;96530.63;5027317;28;20024;-77
2022/10/20 02:59:53;;;;;;;37.37;22.23;;;;;;;9.14;100.00;96547.22;5017803;28;20070;-77
2022/10/20 03:02:19;;;;;;;36.93;23.47;;;;;;;9.10;100.00;96538.00;4996659;28;20083;-77
2022/10/20 03:04:44;;;;;;;36.47;21.93;;;;;;;9.16;100.00;96542.66;5024309;28;20133;-77
2022/10/20 03:07:10;;;;;;;37.10;22.57;;;;;;;9.12;100.00;96538.69;4992654;28;20124;-77
2022/10/20 03:09:36;;;;;;;37.37;22.63;;;;;;;9.01;100.00;96532.75;5007130;28;20151;-76
2022/10/20 03:12:02;;;;;;;33.93;21.23;;;;;;;9.04;100.00;96529.84;5009774;28;20415;-77
2022/10/20 03:14:28;;;;;;;34.53;23.73;;;;;;;8.94;100.00;96529.88;5008930;28;20048;-77
2022/10/20 03:16:54;;;;;;;35.53;21.33;;;;;;;8.97;100.00;96534.84;5008732;28;21118;-77
2022/10/20 03:19:20;;;;;;;34.13;21.67;;;;;;;9.01;100.00;96535.38;5010108;28;20151;-77
2022/10/20 03:21:47;;;;;;;34.77;21.07;;;;;;;8.96;100.00;96543.69;5009946;28;20041;-78
2022/10/20 03:24:13;;;;;;;32.80;21.27;;;;;;;8.94;100.00;96545.63;5006118;28;20590;-78
2022/10/20 03:26:39;;;;;;;33.93;21.50;;;;;;;9.01;100.00;96536.22;4928413;28;20032;-77
2022/10/20 03:29:05;;;;;;;32.77;19.83;;;;;;;9.03;100.00;96534.28;4872852;28;20368;-77
2022/10/20 03:31:30;;;;;;;34.43;20.80;;;;;;;9.04;100.00;96529.84;4887387;28;20063;-77
2022/10/20 03:33:56;;;;;;;30.47;21.17;;;;;;;8.88;100.00;96536.50;4905256;28;20040;-77
2022/10/20 03:36:22;;;;;;;29.27;19.33;;;;;;;9.01;100.00;96530.97;4903933;28;20072;-77
2022/10/20 03:38:47;;;;;;;32.83;20.60;;;;;;;8.94;100.00;96522.00;4909320;28;20028;-77
2022/10/20 03:41:13;;;;;;;28.30;19.17;;;;;;;8.97;100.00;96513.88;4906663;28;21117;-77
2022/10/20 03:43:41;;;;;;;32.07;19.80;;;;;;;8.98;100.00;96520.75;4910384;28;20037;-77
2022/10/20 03:46:09;;;;;;;29.37;20.07;;;;;;;9.00;100.00;96513.59;4893306;28;20044;-77
2022/10/20 03:48:36;;;;;;;26.30;17.63;;;;;;;9.07;100.00;96517.28;4911105;28;20025;-77
2022/10/20 03:51:03;;;;;;;23.73;17.00;;;;;;;9.09;100.00;96523.22;4904803;28;20033;-78
2022/10/20 03:53:29;;;;;;;23.63;16.27;;;;;;;9.10;100.00;96524.03;4910510;28;21352;-77
2022/10/20 03:55:55;;;;;;;23.13;16.30;;;;;;;9.14;100.00;96528.03;4987793;28;20032;-77
2022/10/20 03:58:20;;;;;;;20.97;15.83;;;;;;;9.16;100.00;96524.31;5036090;28;21260;-77
2022/10/20 04:00:47;;;;;;;23.57;16.03;;;;;;;9.17;100.00;96525.13;5035808;28;20400;-77
2022/10/20 04:03:13;;;;;;;23.23;16.77;;;;;;;9.12;100.00;96541.31;5014478;28;20076;-78
2022/10/20 04:05:39;;;;;;;28.70;20.17;;;;;;;9.09;100.00;96538.97;5021013;28;20037;-77
2022/10/20 04:08:05;;;;;;;30.13;18.37;;;;;;;9.05;100.00;96527.06;5008778;28;20028;-77
2022/10/20 04:10:31;;;;;;;27.63;19.27;;;;;;;9.05;100.00;96531.50;5009828;28;20025;-77
2022/10/20 04:12:58;;;;;;;28.73;18.37;;;;;;;9.05;100.00;96529.69;5010905;28;20455;-77
2022/10/20 04:15:23;;;;;;;25.93;17.10;;;;;;;9.03;100.00;96534.28;5008170;28;20037;-78
2022/10/20 04:17:49;;;;;;;29.97;19.93;;;;;;;9.01;100.00;96530.97;5008103;28;20149;-78
2022/10/20 04:20:15;;;;;;;29.03;19.93;;;;;;;8.99;100.00;96530.28;5010619;28;20041;-77
2022/10/20 04:22:40;;;;;;;32.10;21.60;;;;;;;9.04;100.00;96533.31;5010644;28;20064;-78
2022/10/20 04:25:06;;;;;;;30.50;21.53;;;;;;;9.00;100.00;96537.19;5007424;28;20041;-77
2022/10/20 04:27:32;;;;;;;32.80;20.73;;;;;;;8.94;100.00;96525.47;5009714;28;20033;-77
2022/10/20 04:29:58;;;;;;;28.00;21.00;;;;;;;8.92;100.00;96537.06;5010408;28;20029;-78
2022/10/20 04:32:24;;;;;;;30.37;20.63;;;;;;;8.95;100.00;96534.16;5017622;28;20083;-77
2022/10/20 04:34:49;;;;;;;32.60;20.47;;;;;;;8.97;100.00;96532.22;5052958;28;20033;-78
2022/10/20 04:37:15;;;;;;;32.43;21.43;;;;;;;8.98;100.00;96523.38;5039635;28;20036;-77
2022/10/20 04:39:41;;;;;;;28.80;20.20;;;;;;;9.00;100.00;96510.97;5040180;28;20025;-78
2022/10/20 04:42:06;;;;;;;31.93;20.40;;;;;;;9.00;100.00;96512.75;5037382;28;20029;-77
2022/10/20 04:44:32;;;;;;;29.57;20.57;;;;;;;9.01;100.00;96494.25;5039088;28;20695;-77
2022/10/20 04:46:58;;;;;;;30.53;20.40;;;;;;;9.00;100.00;96497.03;5041640;28;20401;-77
2022/10/20 04:49:23;;;;;;;30.30;19.80;;;;;;;8.99;100.00;96480.47;5039273;28;20716;-77
2022/10/20 04:51:49;;;;;;;29.50;20.00;;;;;;;8.96;100.00;96472.88;5040373;28;20037;-77
2022/10/20 04:54:15;;;;;;;31.77;21.40;;;;;;;9.01;100.00;96462.75;5041468;28;20143;-77
2022/10/20 04:56:40;;;;;;;30.17;19.97;;;;;;;9.03;100.00;96460.00;5039717;28;20095;-78
2022/10/20 04:59:06;;;;;;;29.33;19.80;;;;;;;9.03;100.00;96468.69;5038481;28;20121;-77
2022/10/20 05:01:32;;;;;;;30.10;21.43;;;;;;;9.05;100.00;96469.38;5044087;28;20109;-77
2022/10/20 05:03:58;;;;;;;29.67;18.83;;;;;;;9.15;100.00;96469.31;5048775;28;20040;-79
2022/10/20 05:06:32;;;;;;;27.23;18.30;;;;;;;9.18;100.00;96458.56;5052357;28;20079;-78
2022/10/20 05:09:00;;;;;;;28.43;18.50;;;;;;;9.14;100.00;96444.91;5045047;28;20032;-80
2022/10/20 05:11:27;;;;;;;31.60;19.17;;;;;;;9.20;100.00;96446.94;5047492;28;20029;-79
2022/10/20 05:13:54;;;;;;;27.53;19.07;;;;;;;9.13;100.00;96440.63;5053073;28;20593;-79
2022/10/20 05:16:20;;;;;;;28.87;19.83;;;;;;;9.12;100.00;96449.47;5036892;28;20370;-80
2022/10/20 05:18:47;;;;;;;26.73;18.43;;;;;;;9.17;100.00;96449.84;5029689;28;20029;-80
2022/10/20 05:21:16;;;;;;;27.93;19.57;;;;;;;9.17;100.00;96449.84;5025766;28;20045;-80
2022/10/20 05:23:43;;;;;;;27.63;19.60;;;;;;;9.18;100.00;96450.69;5031363;28;20033;-79
2022/10/20 05:26:14;;;;;;;24.57;18.57;;;;;;;9.19;100.00;96450.56;5024792;28;20032;-77
2022/10/20 05:28:46;;;;;;;27.33;19.80;;;;;;;9.20;100.00;96436.44;5024648;28;20044;-79
2022/10/20 05:31:12;;;;;;;26.80;19.23;;;;;;;9.19;100.00;96449.72;4991272;28;20033;-79
2022/10/20 05:33:42;;;;;;;27.23;18.57;;;;;;;9.25;100.00;96437.81;4820175;28;20541;-78
2022/10/20 05:36:09;;;;;;;26.43;18.70;;;;;;;9.22;100.00;96433.66;4827489;28;20083;-79
2022/10/20 05:38:35;;;;;;;28.07;20.20;;;;;;;9.21;100.00;96438.09;4823175;28;20493;-79
2022/10/20 05:41:06;;;;;;;27.67;17.90;;;;;;;9.28;100.00;96429.63;4831520;28;20040;-76
2022/10/20 05:43:32;;;;;;;28.90;19.70;;;;;;;9.31;100.00;96440.66;4776505;28;20450;-77
2022/10/20 05:45:58;;;;;;;24.57;18.07;;;;;;;9.36;100.00;96453.38;4804965;28;20029;-78
2022/10/20 05:48:23;;;;;;;26.13;18.07;;;;;;;9.41;100.00;96448.50;4848141;28;20651;-78
2022/10/20 05:50:49;;;;;;;29.97;19.57;;;;;;;9.30;100.00;96453.94;4878787;28;21660;-80
2022/10/20 05:53:15;;;;;;;22.80;16.93;;;;;;;9.30;100.00;96452.16;4878534;28;20099;-78
2022/10/20 05:55:40;;;;;;;25.13;17.70;;;;;;;9.32;100.00;96454.63;4884340;28;20032;-80
2022/10/20 05:58:06;;;;;;;24.47;17.73;;;;;;;9.32;100.00;96454.63;4916160;28;20059;-78
2022/10/20 06:00:40;;;;;;;31.20;20.40;;;;;;;9.30;100.00;96454.78;4914891;28;20043;-78
2022/10/20 06:03:06;;;;;;;27.37;19.63;;;;;;;9.36;100.00;96458.63;5001963;28;20036;-78
2022/10/20 06:05:32;;;;;;;26.13;18.50;;;;;;;9.36;100.00;96456.00;5047009;28;20063;-77
2022/10/20 06:07:58;;;;;;;27.80;18.63;;;;;;;9.37;100.00;96444.53;5037433;28;20665;-77
2022/10/20 06:10:23;;;;;;;27.90;18.77;;;;;;;9.37;100.00;96444.53;5019144;28;20130;-77
2022/10/20 06:12:49;;;;;;;25.10;17.73;;;;;;;9.36;100.00;96445.50;5038399;28;20065;-78
2022/10/20 06:15:15;;;;;;;26.40;18.60;;;;;;;9.40;100.00;96437.16;5041773;28;20031;-77
2022/10/20 06:17:40;;;;;;;26.27;19.47;;;;;;;9.39;100.00;96445.22;5050845;28;20074;-77
2022/10/20 06:20:06;;;;;;;25.73;17.87;;;;;;;9.39;100.00;96446.03;5041409;28;20037;-77
2022/10/20 06:22:32;;;;;;;24.93;18.40;;;;;;;9.36;100.00;96458.63;5036116;28;20039;-78
2022/10/20 06:24:58;;;;;;;27.73;17.63;;;;;;;9.36;100.00;96461.25;5037495;28;20029;-77
2022/10/20 06:27:23;;;;;;;26.80;18.37;;;;;;;9.37;100.00;96460.25;5054445;28;20041;-75
2022/10/20 06:29:49;;;;;;;21.73;16.37;;;;;;;9.43;100.00;96431.63;5038197;28;20024;-76
2022/10/20 06:32:17;;;;;;;22.57;16.17;;;;;;;9.49;100.00;96445.97;5049635;28;20037;-77
2022/10/20 06:34:43;;;;;;;24.23;17.23;;;;;;;9.45;100.00;96434.09;5007249;28;20154;-76
2022/10/20 06:37:09;;;;;;;21.40;15.70;;;;;;;9.55;100.00;96440.13;5010830;28;20033;-76
2022/10/20 06:39:35;;;;;;;24.03;16.77;;;;;;;9.51;100.00;96430.06;5009790;28;20045;-76
2022/10/20 06:42:04;;;;;;;21.23;16.23;;;;;;;9.49;100.00;96432.84;5012156;28;20037;-76
2022/10/20 06:44:30;;;;;;;20.80;15.47;;;;;;;9.52;100.00;96439.59;5016299;28;20036;-77
2022/10/20 06:46:56;;;;;;;24.27;18.23;;;;;;;9.44;100.00;96442.94;5015212;28;20106;-76
2022/10/20 06:49:22;;;;;;;23.97;16.23;;;;;;;9.47;100.00;96436.59;5012501;28;20024;-77
2022/10/20 06:51:48;;;;;;;23.10;16.40;;;;;;;9.52;100.00;96429.09;5019841;28;20035;-77
2022/10/20 06:54:13;;;;;;;22.20;15.37;;;;;;;9.49;100.00;96429.38;5011997;28;22146;-77
2022/10/20 06:56:39;;;;;;;23.37;16.93;;;;;;;9.46;100.00;96443.66;5013890;28;20029;-78
2022/10/20 06:59:05;;;;;;;20.30;15.53;;;;;;;9.55;100.00;96449.78;5010273;28;20290;-78
2022/10/20 07:01:33;;;;;;;21.43;15.50;;;;;;;9.49;100.00;96445.97;4994745;28;20033;-78
2022/10/20 07:04:09;;;;;;;21.17;14.70;;;;;;;9.60;100.00;96448.38;5009148;28;20111;-77
2022/10/20 07:06:38;;;;;;;22.47;16.43;;;;;;;9.59;100.00;96448.53;5025001;28;20037;-78
2022/10/20 07:09:10;;;;;;;21.53;16.03;;;;;;;9.55;100.00;96440.13;5025398;28;21845;-77
2022/10/20 07:11:36;;;;;;;22.03;15.90;;;;;;;9.62;100.00;96445.59;5026751;28;20041;-78
2022/10/20 07:14:03;;;;;;;22.03;15.40;;;;;;;9.56;100.00;96436.53;5024116;28;20060;-77
2022/10/20 07:16:32;;;;;;;27.10;16.97;;;;;;;9.49;100.00;96439.88;5027727;28;20037;-78
2022/10/20 07:18:58;;;;;;;21.83;15.47;;;;;;;9.52;100.00;96440.41;5042080;28;20529;-77
2022/10/20 07:21:26;;;;;;;21.67;15.83;;;;;;;9.53;100.00;96442.06;5030911;28;21130;-78
2022/10/20 07:23:52;;;;;;;23.83;16.27;;;;;;;9.54;100.00;96438.47;5030357;28;20033;-78
2022/10/20 07:26:20;;;;;;;21.63;15.77;;;;;;;9.57;100.00;96430.31;5026393;28;20465;-78
2022/10/20 07:28:48;;;;;;;25.73;17.37;;;;;;;9.49;100.00;96440.72;5026302;28;20394;-77
2022/10/20 07:31:40;;;;;;;21.93;15.67;;;;;;;9.54;100.00;96438.47;5026937;28;20101;-77
2022/10/20 07:34:07;;;;;;;21.53;15.53;;;;;;;9.55;100.00;96436.66;5047334;28;20052;-77
2022/10/20 07:36:34;;;;;;;21.23;15.90;;;;;;;9.56;100.00;96440.97;5043922;28;20554;-77
2022/10/20 07:39:03;;;;;;;21.50;15.47;;;;;;;9.59;100.00;96452.00;5021236;28;20405;-77
2022/10/20 07:41:29;;;;;;;19.40;14.60;;;;;;;9.70;100.00;96439.63;5057317;28;20029;-78
2022/10/20 07:43:56;;;;;;;21.03;15.83;;;;;;;9.65;100.00;96430.38;5038128;28;20030;-78
2022/10/20 07:46:22;;;;;;;20.40;14.63;;;;;;;9.66;100.00;96432.03;5036262;28;20833;-77
2022/10/20 07:48:48;;;;;;;22.23;15.40;;;;;;;9.66;100.00;96432.03;5038136;28;20030;-77
2022/10/20 07:51:23;;;;;;;21.20;15.33;;;;;;;9.73;100.00;96434.09;5040085;28;20128;-77
2022/10/20 07:53:51;;;;;;;18.53;14.20;;;;;;;9.68;100.00;96432.69;5052313;28;20042;-77
2022/10/20 07:56:17;;;;;;;19.83;15.07;;;;;;;9.71;100.00;96431.59;5038370;28;20098;-77
2022/10/20 07:58:43;;;;;;;18.80;14.27;;;;;;;9.88;100.00;96443.91;5042218;28;20040;-78
2022/10/20 08:01:09;;;;;;;19.10;14.77;;;;;;;9.93;100.00;96434.78;5039250;28;20108;-77
2022/10/20 08:03:35;;;;;;;18.57;14.03;;;;;;;10.10;100.00;96439.19;5041348;28;20167;-78
2022/10/20 08:06:02;;;;;;;17.00;13.70;;;;;;;10.18;100.00;96435.78;5015829;28;20045;-78
2022/10/20 08:08:28;;;;;;;23.00;15.20;;;;;;;10.30;100.00;96434.63;5006199;28;20033;-78
2022/10/20 08:10:53;;;;;;;18.07;13.30;;;;;;;10.28;100.00;96433.94;4951816;28;23226;-77
2022/10/20 08:13:19;;;;;;;16.77;13.20;;;;;;;10.20;100.00;96439.09;4986343;28;20029;-78
2022/10/20 08:15:46;;;;;;;17.70;13.97;;;;;;;10.28;100.00;96431.31;4978016;28;20033;-78
2022/10/20 08:18:12;;;;;;;18.80;13.83;;;;;;;10.26;100.00;96433.25;4972363;28;20037;-78
2022/10/20 08:20:37;;;;;;;18.43;12.63;;;;;;;10.29;100.00;96431.13;4965107;28;20087;-78
2022/10/20 08:23:03;;;;;;;20.17;13.87;;;;;;;10.48;100.00;96429.31;4976004;28;23797;-78
2022/10/20 08:25:29;;;;;;;26.60;14.07;;;;;;;10.11;100.00;96410.13;4980120;28;20390;-77
2022/10/20 08:27:55;;;;;;;16.50;12.90;;;;;;;10.51;100.00;96406.16;4969501;28;20115;-79
2022/10/20 08:30:20;;;;;;;16.27;12.27;;;;;;;10.41;100.00;96405.44;4936878;28;20037;-77
2022/10/20 08:32:52;;;;;;;15.83;11.97;;;;;;;10.49;100.00;96400.22;4914455;28;20033;-78
2022/10/20 08:35:18;;;;;;;18.80;13.60;;;;;;;10.47;100.00;96396.13;4938846;28;20079;-77
2022/10/20 08:37:44;;;;;;;14.37;11.67;;;;;;;10.41;100.00;96387.03;4978525;28;20031;-77
2022/10/20 08:40:16;;;;;;;15.73;11.90;;;;;;;10.58;100.00;96390.59;4994539;28;20029;-78
2022/10/20 08:42:44;;;;;;;17.00;12.57;;;;;;;10.59;100.00;96390.44;4969847;28;20573;-78
2022/10/20 08:45:19;;;;;;;15.30;11.63;;;;;;;10.59;100.00;96389.59;4970701;28;20021;-77
2022/10/20 08:47:48;;;;;;;15.37;11.80;;;;;;;10.62;100.00;96389.31;4970777;28;20037;-78
2022/10/20 08:50:16;;;;;;;14.23;11.17;;;;;;;10.88;100.00;96391.09;4962152;28;20024;-78
2022/10/20 08:52:49;;;;;;;14.40;10.93;;;;;;;11.10;100.00;96393.19;4977645;28;20032;-78
2022/10/20 08:55:44;;;;;;;13.20;10.00;;;;;;;11.46;100.00;96398.22;4970092;28;20045;-78
2022/10/20 08:58:20;;;;;;;14.07;9.83;;;;;;;11.90;100.00;96384.81;4976638;28;20041;-77
2022/10/20 09:00:47;;;;;;;13.90;11.40;;;;;;;11.51;100.00;96399.38;4964680;28;20029;-77
2022/10/20 09:03:16;;;;;;;14.83;11.30;;;;;;;11.15;100.00;96388.25;4957985;28;20159;-78
2022/10/20 09:05:46;;;;;;;15.20;11.57;;;;;;;11.51;100.00;96380.94;4996071;28;20120;-78
2022/10/20 09:08:11;;;;;;;16.10;11.87;;;;;;;11.30;100.00;96385.81;5001422;28;20048;-78
2022/10/20 09:10:52;;;;;;;14.10;11.03;;;;;;;11.11;100.00;96383.47;5010084;28;20036;-78
2022/10/20 09:13:22;;;;;;;14.77;11.87;;;;;;;11.15;100.00;96366.38;5025873;28;20498;-77
2022/10/20 09:15:50;;;;;;;14.07;10.73;;;;;;;11.25;100.00;96362.63;5040390;28;20029;-77
2022/10/20 09:18:17;;;;;;;14.10;10.90;;;;;;;11.24;100.00;96365.41;5040024;28;20524;-78
2022/10/20 09:20:56;;;;;;;16.53;10.77;;;;;;;11.86;100.00;96365.88;5037033;28;20033;-77
2022/10/20 09:23:43;;;;;;;15.10;11.00;;;;;;;11.80;100.00;96383.16;5030035;28;20048;-77
2022/10/20 09:26:19;;;;;;;14.67;10.00;;;;;;;11.63;100.00;96386.72;5041537;28;20040;-77
2022/10/20 09:28:50;;;;;;;13.57;10.17;;;;;;;11.55;100.00;96373.56;5029621;28;20538;-77
2022/10/20 09:31:32;;;;;;;12.93;9.50;;;;;;;11.28;100.00;96378.09;5018765;28;20060;-77
2022/10/20 09:33:58;;;;;;;22.40;13.53;;;;;;;11.67;100.00;96358.25;5018077;28;20037;-77
2022/10/20 09:36:29;;;;;;;15.20;10.97;;;;;;;11.81;100.00;96349.72;5018219;28;21244;-77
2022/10/20 09:38:56;;;;;;;12.83;10.40;;;;;;;11.88;100.00;96371.81;5017224;28;20486;-77
2022/10/20 09:41:29;;;;;;;14.83;10.20;;;;;;;11.79;100.00;96380.66;5011252;28;20043;-77
2022/10/20 09:43:55;;;;;;;14.18;9.82;;;;;;;12.08;100.00;96376.78;5012539;28;20075;-77
2022/10/20 09:46:24;;;;;;;14.00;10.13;;;;;;;12.61;100.00;96373.56;5010077;28;20173;-77
2022/10/20 09:48:50;;;;;;;12.17;8.63;;;;;;;12.50;100.00;96374.72;5008311;28;20024;-78
2022/10/20 09:51:25;;;;;;;12.40;8.90;;;;;;;12.62;100.00;96371.75;5007740;28;20167;-77
2022/10/20 09:54:14;;;;;;;16.57;9.57;;;;;;;12.89;100.00;96371.34;5004975;28;20040;-77
2022/10/20 09:56:42;;;;;;;10.53;8.27;;;;;;;12.98;100.00;96364.22;5004856;28;20033;-77
2022/10/20 09:59:33;;;;;;;12.23;8.80;;;;;;;12.72;100.00;96369.75;5031923;28;20040;-76
2022/10/20 10:02:22;;;;;;;13.03;9.57;;;;;;;12.14;100.00;96368.19;5052453;28;20624;-78
2022/10/20 10:04:52;;;;;;;11.77;8.57;;;;;;;12.64;100.00;96370.59;5037942;28;20119;-77
2022/10/20 10:07:21;;;;;;;11.17;8.27;;;;;;;12.58;100.00;96381.00;5039514;28;20498;-78
2022/10/20 10:09:58;;;;;;;12.40;8.57;;;;;;;12.95;100.00;96378.59;5041767;28;20029;-78
2022/10/20 10:12:26;;;;;;;11.27;8.37;;;;;;;12.89;100.00;96383.72;5055077;28;20033;-78
2022/10/20 10:14:59;;;;;;;11.60;9.47;;;;;;;12.80;100.00;96382.91;5036849;28;20036;-78
2022/10/20 10:17:34;;;;;;;13.13;9.07;;;;;;;13.52;100.00;96380.19;4995023;28;20137;-77
2022/10/20 10:20:04;;;;;;;12.50;8.97;;;;;;;13.89;100.00;96368.88;4978998;28;20386;-78
2022/10/20 10:22:30;;;;;;;13.23;8.67;;;;;;;13.82;100.00;96375.03;4979512;28;20120;-78
2022/10/20 10:24:56;;;;;;;10.43;8.07;;;;;;;13.98;100.00;96363.50;4928739;28;20086;-78
2022/10/20 10:27:28;;;;;;;13.47;9.20;;;;;;;14.34;100.00;96364.53;4927789;28;21213;-78
2022/10/20 10:30:15;;;;;;;12.32;7.97;;;;;;;14.28;100.00;96359.94;4944359;28;22632;-78
2022/10/20 10:32:46;;;;;;;10.17;7.60;;;;;;;14.00;100.00;96369.44;4920193;28;20043;-78
2022/10/20 10:35:26;;;;;;;11.85;8.30;;;;;;;13.73;100.00;96368.97;4874971;28;22151;-77
2022/10/20 10:37:53;;;;;;;11.80;9.03;;;;;;;13.00;100.00;96371.97;4879146;28;21890;-75
2022/10/20 10:40:23;;;;;;;12.70;9.13;;;;;;;13.25;100.00;96359.53;4877311;28;20029;-76
2022/10/20 10:43:33;;;;;;;14.83;8.57;;;;;;;13.37;100.00;96350.19;4887398;28;20119;-76
2022/10/20 10:46:01;;;;;;;13.37;8.93;;;;;;;12.90;100.00;96353.69;4861236;28;20441;-76
2022/10/20 10:48:51;;;;;;;12.37;9.00;;;;;;;12.86;100.00;96341.84;4948992;28;20059;-76
2022/10/20 10:51:38;;;;;;;11.57;8.63;;;;;;;12.81;100.00;96349.41;4906922;28;20044;-76
2022/10/20 10:54:16;;;;;;;13.00;9.00;;;;;;;12.82;100.00;96357.19;4900412;28;22886;-75
2022/10/20 10:56:53;;;;;;;13.60;9.27;;;;;;;12.79;100.00;96352.25;4925281;28;20052;-76
2022/10/20 10:59:33;;;;;;;12.00;8.80;;;;;;;12.73;100.00;96339.72;4884969;28;20033;-76
2022/10/20 11:02:02;;;;;;;12.17;8.53;;;;;;;12.84;100.00;96341.16;4883595;28;20029;-76
2022/10/20 11:05:01;;;;;;;11.67;8.67;;;;;;;13.11;100.00;96338.09;4945135;28;20033;-77
2022/10/20 11:07:51;;;;;;;14.60;9.40;;;;;;;13.12;100.00;96339.75;4966850;28;20103;-77
2022/10/20 11:10:33;;;;;;;10.63;8.77;;;;;;;12.76;100.00;96347.31;4968160;28;20060;-76
2022/10/20 11:13:17;;;;;;;13.53;9.90;;;;;;;13.00;100.00;96348.22;4967893;28;20029;-76
2022/10/20 11:16:09;;;;;;;11.23;9.07;;;;;;;12.92;100.00;96346.44;4961828;28;21937;-76
2022/10/20 11:18:34;;;;;;;16.70;9.10;;;;;;;13.23;100.00;96354.38;4951604;28;20063;-76
2022/10/20 11:21:31;;;;;;;15.53;9.73;;;;;;;12.84;100.00;96360.47;4966381;28;20382;-77
2022/10/20 11:24:13;;;;;;;13.30;9.77;;;;;;;12.91;100.00;96347.41;4979816;28;20136;-77
2022/10/20 11:26:46;;;;;;;13.03;9.33;;;;;;;13.83;100.00;96348.41;4978437;28;20033;-76
2022/10/20 11:29:35;;;;;;;16.77;9.60;;;;;;;14.66;100.00;96338.78;5006714;28;21634;-76